Time;durP1;ratioP1;P1;durP2;ratioP2;P2;SDS_P1;SDS_P2;PMS_P1;PMS_P2;Temp;Humidity;BMP_temperature;BMP_pressure;BME280_temperature;BME280_humidity;BME280_pressure;Samples;Min_cycle;Max_cycle;Signal;HPM_P1;HPM_P2
2021/06/09 00:00:57;;;;;;;7.95;5.00;;;563.20;1433.60;;;;;;5073616;28;20059;-64
2021/06/09 00:03:23;;;;;;;11.60;5.05;;;563.20;1433.60;;;;;;5073872;28;20060;-65
2021/06/09 00:05:50;;;;;;;11.10;5.35;;;563.20;1433.60;;;;;;5073662;28;20534;-65
2021/06/09 00:08:18;;;;;;;8.55;5.15;;;538.50;1433.60;;;;;;5073826;28;20078;-65
2021/06/09 00:10:45;;;;;;;7.65;5.18;;;538.50;1433.60;;;;;;5073745;28;20078;-64
2021/06/09 00:13:11;;;;;;;9.68;5.25;;;538.50;1433.60;;;;;;5073549;28;20013;-65
2021/06/09 00:15:37;;;;;;;9.98;4.57;;;538.50;1433.60;;;;;;5073402;28;20447;-65
2021/06/09 00:18:03;;;;;;;7.35;5.03;;;538.50;1408.00;;;;;;5073377;28;20020;-65
2021/06/09 00:20:29;;;;;;;8.80;5.47;;;538.50;1433.60;;;;;;5073666;28;20033;-64
2021/06/09 00:22:56;;;;;;;10.85;5.53;;;538.40;1433.60;;;;;;5073970;28;20043;-64
2021/06/09 00:25:22;;;;;;;6.85;5.15;;;538.40;1433.60;;;;;;5073365;28;20028;-64
2021/06/09 00:27:54;;;;;;;7.45;5.38;;;538.30;1433.60;;;;;;5073354;28;20488;-64
2021/06/09 00:30:26;;;;;;;8.73;5.40;;;538.30;1433.60;;;;;;5073220;28;20519;-65
2021/06/09 00:32:52;;;;;;;7.80;5.45;;;538.30;1433.60;;;;;;5073693;28;20017;-64
2021/06/09 00:35:18;;;;;;;9.48;5.72;;;538.30;1433.60;;;;;;5073489;28;20393;-64
2021/06/09 00:37:44;;;;;;;9.88;4.57;;;538.20;1433.60;;;;;;5077433;28;20074;-65
2021/06/09 00:40:11;;;;;;;7.55;5.07;;;538.30;1433.60;;;;;;5077467;28;20427;-64
2021/06/09 00:42:38;;;;;;;8.40;5.32;;;538.20;1433.60;;;;;;5077590;28;20028;-64
2021/06/09 00:45:08;;;;;;;9.70;4.72;;;538.20;1433.60;;;;;;5077617;28;20028;-64
2021/06/09 00:47:34;;;;;;;7.53;5.10;;;538.10;1459.20;;;;;;5077206;28;20020;-64
2021/06/09 00:50:00;;;;;;;7.78;5.50;;;538.20;1433.60;;;;;;5077444;28;20052;-71
2021/06/09 00:52:27;;;;;;;8.88;5.55;;;538.10;1459.20;;;;;;5077144;28;20425;-65
2021/06/09 00:54:54;;;;;;;10.63;5.93;;;538.10;1459.20;;;;;;5077314;28;20362;-64
2021/06/09 00:57:21;;;;;;;6.13;5.40;;;538.10;1459.20;;;;;;5076887;28;20086;-64
2021/06/09 00:59:47;;;;;;;8.57;5.13;;;538.00;1484.80;;;;;;5077350;28;20516;-66
2021/06/09 01:02:13;;;;;;;7.47;5.30;;;538.00;1484.80;;;;;;5077384;28;20017;-64
2021/06/09 01:04:40;;;;;;;12.55;5.20;;;538.00;1484.80;;;;;;5076926;28;20036;-65
2021/06/09 01:07:08;;;;;;;6.22;5.00;;;538.00;1484.80;;;;;;5076805;28;20028;-64
2021/06/09 01:09:34;;;;;;;9.30;4.97;;;538.00;1484.80;;;;;;5076770;28;20078;-63
2021/06/09 01:12:00;;;;;;;12.50;5.55;;;537.80;1510.40;;;;;;5076687;28;20027;-64
2021/06/09 01:14:27;;;;;;;8.98;5.13;;;537.80;1484.80;;;;;;5076656;28;20033;-64
2021/06/09 01:16:53;;;;;;;8.80;5.25;;;537.80;1510.40;;;;;;5076648;28;20586;-64
2021/06/09 01:19:21;;;;;;;7.85;5.22;;;537.80;1484.80;;;;;;5076636;28;20036;-64
2021/06/09 01:21:49;;;;;;;8.23;4.93;;;537.80;1484.80;;;;;;5076858;28;20028;-69
2021/06/09 01:24:16;;;;;;;10.10;5.05;;;537.80;1484.80;;;;;;5076442;28;20035;-64
2021/06/09 01:26:42;;;;;;;7.22;5.07;;;537.80;1484.80;;;;;;5076755;28;20109;-64
2021/06/09 01:29:09;;;;;;;7.63;5.00;;;537.70;1484.80;;;;;;5076718;28;20070;-64
2021/06/09 01:31:36;;;;;;;9.57;4.65;;;537.80;1484.80;;;;;;5076372;28;20469;-65
2021/06/09 01:34:06;;;;;;;8.80;4.82;;;537.70;1484.80;;;;;;5076322;28;20028;-64
2021/06/09 01:36:42;;;;;;;8.05;4.78;;;537.70;1510.40;;;;;;5076194;28;20089;-63
2021/06/09 01:39:14;;;;;;;6.68;4.85;;;537.70;1510.40;;;;;;5076600;28;20354;-64
2021/06/09 01:41:48;;;;;;;9.40;4.70;;;537.70;1484.80;;;;;;5076231;28;20029;-64
2021/06/09 01:44:14;;;;;;;9.23;4.80;;;537.60;1510.40;;;;;;5076514;28;20107;-64
2021/06/09 01:46:42;;;;;;;9.20;4.93;;;537.60;1510.40;;;;;;5075822;28;20048;-65
2021/06/09 01:49:13;;;;;;;11.57;4.95;;;537.60;1510.40;;;;;;5076039;28;20556;-64
2021/06/09 01:51:40;;;;;;;8.35;5.15;;;537.60;1510.40;;;;;;5076554;28;20021;-64
2021/06/09 01:54:07;;;;;;;6.07;4.65;;;537.70;1510.40;;;;;;5076245;28;20034;-64
2021/06/09 01:56:34;;;;;;;5.60;5.00;;;537.60;1510.40;;;;;;5076217;28;20028;-64
2021/06/09 01:59:14;;;;;;;8.65;4.70;;;537.60;1510.40;;;;;;5075762;28;20465;-64
2021/06/09 02:01:40;;;;;;;7.10;5.03;;;537.60;1510.40;;;;;;5075879;28;20092;-70
2021/06/09 02:04:14;;;;;;;5.32;4.78;;;537.60;1510.40;;;;;;5075812;28;20078;-64
2021/06/09 02:06:40;;;;;;;;;;;537.60;1510.40;;;;;;5076498;28;20028;-64
2021/06/09 02:09:07;;;;;;;8.25;4.88;;;537.60;1536.00;;;;;;5075699;28;19958;-64
2021/06/09 02:11:33;;;;;;;6.55;5.07;;;537.60;1536.00;;;;;;5075879;28;20062;-64
2021/06/09 02:14:00;;;;;;;6.78;5.05;;;512.90;1510.40;;;;;;5075817;28;20028;-64
2021/06/09 02:16:37;;;;;;;6.90;5.05;;;512.90;1510.40;;;;;;5075580;28;20056;-64
2021/06/09 02:19:04;;;;;;;9.25;4.80;;;512.90;1510.40;;;;;;5075618;28;20032;-64
2021/06/09 02:21:33;;;;;;;8.45;4.68;;;512.80;1510.40;;;;;;5075441;28;20028;-64
2021/06/09 02:23:59;;;;;;;8.23;5.45;;;512.90;1510.40;;;;;;5075680;28;20024;-64
2021/06/09 02:26:26;;;;;;;8.82;4.90;;;512.80;1510.40;;;;;;5075502;28;20418;-64
2021/06/09 02:28:52;;;;;;;10.07;4.80;;;512.80;1510.40;;;;;;5075358;28;20031;-64
2021/06/09 02:31:19;;;;;;;10.02;5.65;;;512.70;1510.40;;;;;;5075295;28;20025;-64
2021/06/09 02:33:45;;;;;;;7.30;4.97;;;512.80;1510.40;;;;;;5075487;28;20024;-71
2021/06/09 02:36:13;;;;;;;6.05;4.78;;;512.70;1510.40;;;;;;5075469;28;20028;-70
2021/06/09 02:38:40;;;;;;;9.75;5.47;;;512.70;1510.40;;;;;;5075151;28;20537;-64
2021/06/09 02:41:07;;;;;;;12.52;5.30;;;512.70;1510.40;;;;;;5075080;28;20466;-64
2021/06/09 02:43:33;;;;;;;8.70;4.80;;;512.70;1510.40;;;;;;5075205;28;20021;-64
2021/06/09 02:46:10;;;;;;;5.85;4.93;;;512.70;1510.40;;;;;;5075016;28;20477;-71
2021/06/09 02:48:41;;;;;;;12.02;6.03;;;512.60;1510.40;;;;;;5074978;28;20485;-64
2021/06/09 02:51:07;;;;;;;7.70;5.43;;;512.60;1536.00;;;;;;5074987;28;20043;-64
2021/06/09 02:53:47;;;;;;;8.85;5.32;;;512.60;1536.00;;;;;;5074756;28;20115;-64
2021/06/09 02:56:24;;;;;;;8.05;5.18;;;512.60;1536.00;;;;;;5074985;28;20029;-65
2021/06/09 02:59:15;;;;;;;9.30;4.95;;;512.60;1536.00;;;;;;5073784;28;20051;-64
2021/06/09 03:01:57;;;;;;;9.85;5.93;;;512.60;1536.00;;;;;;5074660;28;20032;-70
2021/06/09 03:04:48;;;;;;;10.43;6.68;;;512.50;1536.00;;;;;;5074633;28;20048;-64
2021/06/09 03:07:39;;;;;;;6.95;4.97;;;512.50;1561.60;;;;;;5074865;28;20056;-64
2021/06/09 03:10:44;;;;;;;10.88;5.57;;;512.50;1561.60;;;;;;5074177;28;20033;-65
2021/06/09 03:13:39;;;;;;;10.32;5.22;;;512.30;1561.60;;;;;;5074397;28;20065;-64
2021/06/09 03:16:10;;;;;;;8.35;5.35;;;512.40;1561.60;;;;;;5074596;28;20064;-63
2021/06/09 03:18:44;;;;;;;7.22;5.40;;;512.40;1561.60;;;;;;5074299;28;20024;-72
2021/06/09 03:21:12;;;;;;;;;;;512.30;1561.60;;;;;;5074723;28;20020;-64
2021/06/09 03:23:46;;;;;;;7.60;5.35;;;512.30;1561.60;;;;;;5074540;28;20334;-70
2021/06/09 03:26:12;;;;;;;8.07;5.72;;;512.20;1561.60;;;;;;5074153;28;20020;-65
2021/06/09 03:28:45;;;;;;;11.68;6.00;;;512.20;1561.60;;;;;;5074167;28;20119;-70
2021/06/09 03:31:15;;;;;;;;;;;512.20;1561.60;;;;;;5074563;28;20350;-64
2021/06/09 03:33:44;;;;;;;10.35;5.80;;;512.20;1561.60;;;;;;5074287;28;20349;-64
2021/06/09 03:36:37;;;;;;;10.00;6.13;;;512.20;1561.60;;;;;;5073974;28;20028;-64
2021/06/09 03:39:07;;;;;;;6.80;5.45;;;512.10;1561.60;;;;;;5071026;28;20039;-63
2021/06/09 03:41:51;;;;;;;8.38;5.78;;;512.10;1587.20;;;;;;5074698;28;20047;-64
2021/06/09 03:44:24;;;;;;;9.88;6.25;;;512.10;1587.20;;;;;;5073940;28;20029;-64
2021/06/09 03:46:51;;;;;;;13.43;5.28;;;512.10;1587.20;;;;;;5073956;28;20044;-64
2021/06/09 03:49:18;;;;;;;8.75;5.95;;;512.10;1587.20;;;;;;5073371;28;20558;-67
2021/06/09 03:51:45;;;;;;;10.30;6.07;;;512.20;1587.20;;;;;;5073770;28;20069;-71
2021/06/09 03:54:12;;;;;;;8.35;5.60;;;512.20;1587.20;;;;;;5073680;28;20032;-69
2021/06/09 03:56:43;;;;;;;9.13;6.07;;;512.20;1587.20;;;;;;5073745;28;20025;-64
2021/06/09 03:59:10;;;;;;;11.10;6.03;;;512.20;1587.20;;;;;;5073500;28;20060;-65
2021/06/09 04:01:40;;;;;;;8.98;6.53;;;512.20;1587.20;;;;;;5073649;28;20028;-71
2021/06/09 04:04:08;;;;;;;10.75;6.43;;;512.20;1587.20;;;;;;5073984;28;20100;-64
2021/06/09 04:06:39;;;;;;;15.40;6.90;;;512.30;1587.20;;;;;;5073701;28;20021;-64
2021/06/09 04:09:06;;;;;;;10.30;6.28;;;512.30;1587.20;;;;;;5073571;28;20025;-71
2021/06/09 04:11:33;;;;;;;10.98;6.65;;;512.50;1561.60;;;;;;5073511;28;20025;-71
2021/06/09 04:13:59;;;;;;;15.43;6.78;;;512.50;1561.60;;;;;;5073674;28;20039;-65
2021/06/09 04:16:29;;;;;;;11.57;6.63;;;512.60;1561.60;;;;;;5073434;28;20025;-64
2021/06/09 04:18:57;;;;;;;7.32;5.97;;;512.70;1561.60;;;;;;5073470;28;20027;-63
2021/06/09 04:21:25;;;;;;;9.35;6.32;;;512.80;1561.60;;;;;;5073543;28;20070;-65
2021/06/09 04:23:51;;;;;;;9.43;6.15;;;512.90;1561.60;;;;;;5073677;28;20028;-73
2021/06/09 04:26:19;;;;;;;6.85;6.03;;;537.60;1587.20;;;;;;5073680;28;20028;-66
2021/06/09 04:28:46;;;;;;;10.60;6.07;;;537.60;1587.20;;;;;;5073389;28;20016;-73
2021/06/09 04:31:13;;;;;;;14.95;6.90;;;537.70;1587.20;;;;;;5073043;28;20105;-64
2021/06/09 04:33:40;;;;;;;14.65;6.57;;;537.70;1587.20;;;;;;5073475;28;20021;-72
2021/06/09 04:36:11;;;;;;;8.82;6.32;;;537.80;1561.60;;;;;;5072023;28;20496;-73
2021/06/09 04:38:38;;;;;;;8.13;6.22;;;537.80;1587.20;;;;;;5073209;28;20508;-69
2021/06/09 04:41:04;;;;;;;11.45;6.00;;;537.80;1587.20;;;;;;5072390;28;20028;-64
2021/06/09 04:43:30;;;;;;;9.10;6.20;;;537.90;1561.60;;;;;;5072553;28;20017;-64
2021/06/09 04:45:56;;;;;;;10.80;6.30;;;537.90;1587.20;;;;;;5072521;28;20373;-67
2021/06/09 04:48:22;;;;;;;9.23;6.00;;;538.00;1561.60;;;;;;5072220;28;20025;-64
2021/06/09 04:50:49;;;;;;;10.85;5.93;;;538.00;1561.60;;;;;;5072742;28;20432;-71
2021/06/09 04:53:19;;;;;;;7.05;6.32;;;538.10;1561.60;;;;;;5073001;28;20078;-65
2021/06/09 04:55:47;;;;;;;8.88;6.05;;;538.10;1587.20;;;;;;5072923;28;20519;-72
2021/06/09 04:58:16;;;;;;;10.32;6.30;;;538.10;1587.20;;;;;;5072665;28;20535;-72
2021/06/09 05:00:44;;;;;;;13.00;6.68;;;538.10;1587.20;;;;;;5072664;28;20035;-65
2021/06/09 05:03:10;;;;;;;17.80;6.53;;;538.20;1561.60;;;;;;5072853;28;20059;-64
2021/06/09 05:05:36;;;;;;;12.82;6.35;;;538.20;1561.60;;;;;;5072981;28;20017;-64
2021/06/09 05:08:02;;;;;;;15.95;6.60;;;538.30;1561.60;;;;;;5072609;28;20032;-65
2021/06/09 05:10:28;;;;;;;8.85;6.28;;;538.40;1561.60;;;;;;5071740;28;20029;-64
2021/06/09 05:13:15;;;;;;;10.23;6.32;;;538.50;1561.60;;;;;;5072862;28;20020;-65
2021/06/09 05:15:46;;;;;;;10.10;6.30;;;538.50;1536.00;;;;;;5072354;28;20040;-64
2021/06/09 05:18:22;;;;;;;9.98;6.15;;;563.20;1587.20;;;;;;5072818;28;20028;-64
2021/06/09 05:20:51;;;;;;;8.38;5.90;;;563.20;1561.60;;;;;;5073037;28;20029;-63
2021/06/09 05:23:38;;;;;;;11.95;6.35;;;563.30;1561.60;;;;;;5076043;28;20158;-63
2021/06/09 05:26:05;;;;;;;10.10;6.47;;;563.40;1536.00;;;;;;5076417;28;20016;-64
2021/06/09 05:28:39;;;;;;;11.73;6.07;;;563.40;1536.00;;;;;;5076294;28;20103;-64
2021/06/09 05:31:05;;;;;;;9.10;6.22;;;563.50;1510.40;;;;;;5076395;28;20021;-64
2021/06/09 05:33:32;;;;;;;8.45;5.85;;;563.50;1536.00;;;;;;5076202;28;20048;-64
2021/06/09 05:35:59;;;;;;;9.63;5.65;;;563.50;1536.00;;;;;;5076276;28;20058;-64
2021/06/09 05:38:26;;;;;;;9.63;5.03;;;563.60;1536.00;;;;;;5075768;28;20469;-64
2021/06/09 05:40:56;;;;;;;9.27;6.18;;;563.60;1536.00;;;;;;5075827;28;20020;-64
2021/06/09 05:43:24;;;;;;;10.85;6.10;;;563.60;1587.20;;;;;;5075697;28;20031;-64
2021/06/09 05:45:50;;;;;;;11.48;5.88;;;563.60;1561.60;;;;;;5075808;28;20035;-64
2021/06/09 05:48:18;;;;;;;8.48;5.45;;;563.70;1536.00;;;;;;5075451;28;20021;-64
2021/06/09 05:50:50;;;;;;;11.25;5.57;;;563.80;1536.00;;;;;;5075974;28;20048;-64
2021/06/09 05:53:17;;;;;;;22.27;6.53;;;563.80;1536.00;;;;;;5076052;28;20023;-64
2021/06/09 05:55:47;;;;;;;6.78;5.55;;;563.80;1536.00;;;;;;5076139;28;20044;-63
2021/06/09 05:58:16;;;;;;;15.90;6.25;;;563.80;1510.40;;;;;;5074483;28;20132;-63
2021/06/09 06:00:43;;;;;;;6.35;5.55;;;563.90;1536.00;;;;;;5076178;28;20024;-64
2021/06/09 06:03:10;;;;;;;11.98;5.68;;;563.90;1536.00;;;;;;5075853;28;20021;-64
2021/06/09 06:05:37;;;;;;;7.38;5.15;;;564.00;1536.00;;;;;;5074566;28;20029;-63
2021/06/09 06:08:04;;;;;;;21.70;6.00;;;564.10;1536.00;;;;;;5075733;28;20527;-64
2021/06/09 06:10:30;;;;;;;9.25;6.05;;;564.10;1536.00;;;;;;5075969;28;20401;-63
2021/06/09 06:12:57;;;;;;;9.88;6.18;;;588.80;1536.00;;;;;;5075431;28;20112;-65
2021/06/09 06:15:24;;;;;;;10.73;5.97;;;588.90;1510.40;;;;;;5075797;28;20051;-65
2021/06/09 06:17:51;;;;;;;7.40;5.20;;;589.00;1536.00;;;;;;5075456;28;20021;-65
2021/06/09 06:20:19;;;;;;;8.80;4.82;;;589.00;1510.40;;;;;;5075743;28;20099;-65
2021/06/09 06:22:46;;;;;;;7.43;4.57;;;589.10;1510.40;;;;;;5076012;28;20021;-64
2021/06/09 06:25:16;;;;;;;11.23;5.47;;;589.20;1484.80;;;;;;5075479;28;20110;-67
2021/06/09 06:27:44;;;;;;;12.25;5.28;;;589.40;1484.80;;;;;;5075408;28;20378;-65
2021/06/09 06:30:10;;;;;;;12.13;5.28;;;589.40;1433.60;;;;;;5075272;28;20024;-66
2021/06/09 06:32:37;;;;;;;7.88;5.22;;;589.50;1459.20;;;;;;5074705;28;20064;-65
2021/06/09 06:35:03;;;;;;;7.47;4.78;;;589.70;1459.20;;;;;;5074438;28;20032;-65
2021/06/09 06:37:30;;;;;;;8.68;5.47;;;614.40;1433.60;;;;;;5075036;28;20028;-65
2021/06/09 06:39:56;;;;;;;7.55;5.57;;;614.50;1408.00;;;;;;5074520;28;20028;-65
2021/06/09 06:42:22;;;;;;;11.05;5.72;;;614.50;1433.60;;;;;;5073970;28;20021;-65
2021/06/09 06:44:48;;;;;;;10.55;5.47;;;614.70;1433.60;;;;;;5073966;28;20116;-65
2021/06/09 06:47:18;;;;;;;11.10;5.70;;;614.90;1433.60;;;;;;5073898;28;20056;-65
2021/06/09 06:49:45;;;;;;;11.93;5.97;;;614.90;1433.60;;;;;;5073917;28;20491;-65
2021/06/09 06:52:11;;;;;;;10.10;5.20;;;615.00;1408.00;;;;;;5073806;28;20028;-65
2021/06/09 06:54:37;;;;;;;9.52;5.40;;;615.10;1382.40;;;;;;5074046;28;20458;-65
2021/06/09 06:57:04;;;;;;;9.23;6.03;;;615.20;1382.40;;;;;;5074847;28;20033;-64
2021/06/09 06:59:31;;;;;;;11.80;5.78;;;615.30;1382.40;;;;;;5074624;28;20052;-64
2021/06/09 07:01:57;;;;;;;7.55;4.93;;;640.00;1382.40;;;;;;5075009;28;20032;-64
2021/06/09 07:04:24;;;;;;;12.18;5.03;;;640.00;1356.80;;;;;;5074683;28;20013;-64
2021/06/09 07:06:51;;;;;;;6.97;5.07;;;640.10;1382.40;;;;;;5074923;28;20103;-64
2021/06/09 07:09:21;;;;;;;9.20;5.07;;;640.10;1356.80;;;;;;5074437;28;20044;-64
2021/06/09 07:11:49;;;;;;;15.55;5.20;;;640.20;1356.80;;;;;;5074462;28;20028;-64
2021/06/09 07:14:16;;;;;;;10.23;5.20;;;640.30;1356.80;;;;;;5074695;28;20117;-64
2021/06/09 07:16:44;;;;;;;8.50;5.35;;;640.40;1356.80;;;;;;5074652;28;20420;-64
2021/06/09 07:19:11;;;;;;;7.05;4.82;;;640.50;1356.80;;;;;;5072953;28;20024;-68
2021/06/09 07:21:39;;;;;;;11.55;4.60;;;640.50;1280.00;;;;;;5074280;28;20504;-64
2021/06/09 07:24:06;;;;;;;8.30;5.10;;;640.60;1305.60;;;;;;5074295;28;20432;-65
2021/06/09 07:26:44;;;;;;;11.93;5.20;;;640.60;1305.60;;;;;;5074429;28;20413;-64
2021/06/09 07:29:12;;;;;;;5.60;4.50;;;640.70;1305.60;;;;;;5073994;28;20078;-64
2021/06/09 07:31:43;;;;;;;7.22;4.68;;;640.80;1305.60;;;;;;5074082;28;20111;-64
2021/06/09 07:34:09;;;;;;;9.63;4.55;;;640.90;1280.00;;;;;;5073988;28;20489;-64
2021/06/09 07:36:47;;;;;;;10.02;4.28;;;640.90;1305.60;;;;;;5073969;28;20037;-64
2021/06/09 07:39:33;;;;;;;6.80;4.28;;;665.60;1280.00;;;;;;5074366;28;20031;-64
2021/06/09 07:42:05;;;;;;;12.45;4.70;;;665.70;1280.00;;;;;;5073839;28;20028;-64
2021/06/09 07:44:44;;;;;;;8.05;3.95;;;665.70;1280.00;;;;;;5073913;28;20027;-64
2021/06/09 07:47:12;;;;;;;9.57;4.40;;;665.70;1280.00;;;;;;5073922;28;20107;-65
2021/06/09 07:49:39;;;;;;;8.82;4.05;;;665.80;1280.00;;;;;;5073722;28;20027;-64
2021/06/09 07:52:07;;;;;;;12.18;4.05;;;665.80;1280.00;;;;;;5073761;28;20070;-64
2021/06/09 07:54:35;;;;;;;10.93;4.80;;;665.90;1254.40;;;;;;5073648;28;20059;-64
2021/06/09 07:57:02;;;;;;;9.48;4.05;;;665.90;1228.80;;;;;;5073700;28;20025;-64
2021/06/09 07:59:28;;;;;;;5.57;3.90;;;666.00;1254.40;;;;;;5073513;28;20505;-65
2021/06/09 08:01:54;;;;;;;7.05;4.32;;;666.10;1228.80;;;;;;5073555;28;20041;-65
2021/06/09 08:04:21;;;;;;;12.38;4.38;;;666.10;1203.20;;;;;;5073904;28;20111;-65
2021/06/09 08:06:47;;;;;;;9.73;4.28;;;666.20;1203.20;;;;;;5073496;28;20128;-65
2021/06/09 08:09:15;;;;;;;6.10;4.07;;;666.30;1203.20;;;;;;5073543;28;20100;-64
2021/06/09 08:11:43;;;;;;;5.68;3.63;;;666.30;1203.20;;;;;;5073829;28;20029;-65
2021/06/09 08:14:10;;;;;;;7.95;4.18;;;666.30;1203.20;;;;;;5073661;28;20032;-65
2021/06/09 08:16:40;;;;;;;8.60;4.53;;;666.30;1203.20;;;;;;5073350;28;20492;-64
2021/06/09 08:19:06;;;;;;;9.85;4.65;;;666.40;1203.20;;;;;;5073465;28;20489;-64
2021/06/09 08:21:33;;;;;;;6.72;4.50;;;666.40;1177.60;;;;;;5072143;28;20020;-64
2021/06/09 08:23:59;;;;;;;9.63;4.40;;;666.40;1177.60;;;;;;5073355;28;20021;-64
2021/06/09 08:26:26;;;;;;;13.43;4.82;;;666.50;1177.60;;;;;;5073338;28;20104;-65
2021/06/09 08:28:54;;;;;;;8.30;3.90;;;666.50;1177.60;;;;;;5073247;28;20033;-64
2021/06/09 08:31:25;;;;;;;13.93;4.88;;;691.20;1152.00;;;;;;5072904;28;20029;-65
2021/06/09 08:33:53;;;;;;;18.45;6.18;;;691.30;1152.00;;;;;;5072775;28;20024;-65
2021/06/09 08:36:20;;;;;;;17.88;7.68;;;691.30;1152.00;;;;;;5073114;28;20043;-65
2021/06/09 08:38:50;;;;;;;6.57;4.40;;;691.30;1100.80;;;;;;5072758;28;20021;-65
2021/06/09 08:41:19;;;;;;;12.15;6.15;;;691.30;1126.40;;;;;;5072064;28;20032;-65
2021/06/09 08:43:47;;;;;;;10.52;4.53;;;691.40;1126.40;;;;;;5071165;28;20027;-64
2021/06/09 08:46:14;;;;;;;5.57;3.97;;;691.50;1075.20;;;;;;5071253;28;20042;-65
2021/06/09 08:48:44;;;;;;;8.57;4.70;;;691.50;1126.40;;;;;;5071211;28;20016;-65
2021/06/09 08:51:12;;;;;;;8.32;5.00;;;691.50;1126.40;;;;;;5071237;28;20017;-65
2021/06/09 08:53:49;;;;;;;8.70;5.07;;;691.50;1126.40;;;;;;5072836;28;20021;-65
2021/06/09 08:56:17;;;;;;;17.45;6.55;;;691.60;1126.40;;;;;;5073315;28;20043;-65
2021/06/09 08:58:43;;;;;;;11.10;6.78;;;691.60;1075.20;;;;;;5077024;28;20048;-64
2021/06/09 09:01:10;;;;;;;7.97;4.07;;;691.60;1100.80;;;;;;5077057;28;20033;-65
2021/06/09 09:03:37;;;;;;;12.68;6.30;;;691.70;1049.60;;;;;;5076975;28;20028;-65
2021/06/09 09:06:04;;;;;;;8.77;4.22;;;691.70;1075.20;;;;;;5076884;28;20039;-68
2021/06/09 09:08:31;;;;;;;5.93;3.97;;;691.70;1049.60;;;;;;5076965;28;20024;-65
2021/06/09 09:10:57;;;;;;;8.02;3.90;;;691.70;1049.60;;;;;;5076722;28;20043;-64
2021/06/09 09:13:25;;;;;;;7.80;4.05;;;691.80;1024.00;;;;;;5077038;28;20485;-65
2021/06/09 09:15:51;;;;;;;10.50;3.95;;;691.90;998.40;;;;;;5076848;28;20047;-65
2021/06/09 09:18:17;;;;;;;9.40;4.35;;;691.90;1024.00;;;;;;5076693;28;20493;-65
2021/06/09 09:20:46;;;;;;;9.10;4.05;;;691.90;1049.60;;;;;;5076699;28;20031;-65
2021/06/09 09:23:24;;;;;;;8.50;4.30;;;691.90;1024.00;;;;;;5076638;28;20028;-65
2021/06/09 09:25:53;;;;;;;9.35;4.03;;;691.90;998.40;;;;;;5076809;28;20029;-65
2021/06/09 09:28:31;;;;;;;8.75;5.55;;;691.90;998.40;;;;;;5076448;28;20024;-65
2021/06/09 09:31:07;;;;;;;7.30;4.03;;;691.90;998.40;;;;;;5076537;28;20032;-65
2021/06/09 09:33:34;;;;;;;6.28;4.30;;;691.90;998.40;;;;;;5076453;28;20078;-66
2021/06/09 09:36:25;;;;;;;10.50;4.25;;;691.90;998.40;;;;;;5076321;28;20102;-65
2021/06/09 09:38:51;;;;;;;7.30;3.42;;;691.90;1024.00;;;;;;5076592;28;20469;-65
2021/06/09 09:41:19;;;;;;;3.80;3.47;;;692.00;998.40;;;;;;5076229;28;20036;-65
2021/06/09 09:43:56;;;;;;;9.18;3.80;;;692.00;998.40;;;;;;5076282;28;20029;-65
2021/06/09 09:46:33;;;;;;;8.55;4.00;;;692.00;972.80;;;;;;5076086;28;20115;-64
2021/06/09 09:49:14;;;;;;;15.60;4.03;;;692.00;998.40;;;;;;5076179;28;20485;-67
2021/06/09 09:51:47;;;;;;;5.53;3.83;;;692.00;972.80;;;;;;5076350;28;20028;-64
2021/06/09 09:54:14;;;;;;;7.70;4.00;;;692.00;972.80;;;;;;5076337;28;20020;-65
2021/06/09 09:56:41;;;;;;;9.13;3.60;;;692.00;947.20;;;;;;5075870;28;20033;-65
2021/06/09 09:59:12;;;;;;;7.57;3.88;;;692.00;972.80;;;;;;5075857;28;20044;-65
2021/06/09 10:01:39;;;;;;;11.95;4.00;;;692.00;998.40;;;;;;5076108;28;20028;-65
2021/06/09 10:04:08;;;;;;;10.70;5.30;;;692.10;972.80;;;;;;5075893;28;20028;-65
2021/06/09 10:06:34;;;;;;;13.60;6.65;;;692.10;972.80;;;;;;5075788;28;20016;-65
2021/06/09 10:09:24;;;;;;;8.50;4.78;;;692.10;947.20;;;;;;5075904;28;20074;-65
2021/06/09 10:12:04;;;;;;;9.32;3.33;;;716.80;998.40;;;;;;5075720;28;20142;-65
2021/06/09 10:14:33;;;;;;;7.25;3.63;;;716.80;998.40;;;;;;5075634;28;20043;-65
2021/06/09 10:17:03;;;;;;;5.40;3.53;;;716.90;947.20;;;;;;5075521;28;20067;-65
2021/06/09 10:19:35;;;;;;;8.32;6.55;;;716.90;998.40;;;;;;5075593;28;20028;-65
2021/06/09 10:22:06;;;;;;;7.65;6.28;;;716.90;972.80;;;;;;5075601;28;20044;-65
2021/06/09 10:24:54;;;;;;;8.73;4.07;;;716.90;921.60;;;;;;5075779;28;20029;-65
2021/06/09 10:27:51;;;;;;;7.53;3.70;;;716.90;947.20;;;;;;5075783;28;20021;-65
2021/06/09 10:30:20;;;;;;;8.57;4.82;;;716.80;947.20;;;;;;5075387;28;20025;-65
2021/06/09 10:32:56;;;;;;;10.43;3.70;;;716.80;921.60;;;;;;5075655;28;20020;-65
2021/06/09 10:35:25;;;;;;;8.55;4.60;;;716.90;947.20;;;;;;5075180;28;20035;-65
2021/06/09 10:37:53;;;;;;;5.35;3.33;;;716.90;896.00;;;;;;5075346;28;20023;-65
2021/06/09 10:40:20;;;;;;;11.40;3.63;;;716.90;870.40;;;;;;5075137;28;20024;-65
2021/06/09 10:42:49;;;;;;;8.27;4.10;;;716.90;896.00;;;;;;5075112;28;20074;-66
2021/06/09 10:45:18;;;;;;;10.45;3.63;;;717.00;921.60;;;;;;5075063;28;20052;-65
2021/06/09 10:47:45;;;;;;;8.52;3.35;;;717.00;921.60;;;;;;5075047;28;20089;-65
2021/06/09 10:50:13;;;;;;;10.20;5.18;;;717.10;896.00;;;;;;5074957;28;20021;-65
2021/06/09 10:52:39;;;;;;;8.07;4.05;;;717.20;921.60;;;;;;5073932;28;20036;-65
2021/06/09 10:55:09;;;;;;;9.63;3.40;;;717.10;947.20;;;;;;5074262;28;20025;-66
2021/06/09 10:57:36;;;;;;;6.88;3.47;;;717.20;921.60;;;;;;5074126;28;20017;-65
2021/06/09 11:00:08;;;;;;;7.63;3.85;;;717.20;947.20;;;;;;5073670;28;20103;-70
2021/06/09 11:02:35;;;;;;;6.90;3.78;;;717.20;896.00;;;;;;5071600;28;20013;-65
2021/06/09 11:05:10;;;;;;;9.23;4.75;;;717.20;947.20;;;;;;5074424;28;20024;-65
2021/06/09 11:07:40;;;;;;;6.60;3.47;;;717.20;947.20;;;;;;5075518;28;20039;-65
2021/06/09 11:10:15;;;;;;;6.70;5.18;;;717.20;921.60;;;;;;5074512;28;20060;-68
2021/06/09 11:12:49;;;;;;;7.00;3.72;;;717.20;896.00;;;;;;5074615;28;20025;-65
2021/06/09 11:15:21;;;;;;;13.40;3.80;;;717.20;921.60;;;;;;5074390;28;20063;-65
2021/06/09 11:17:53;;;;;;;7.97;3.65;;;717.20;921.60;;;;;;5074407;28;20198;-65
2021/06/09 11:20:30;;;;;;;7.05;3.83;;;717.30;921.60;;;;;;5073740;28;20546;-69
2021/06/09 11:23:11;;;;;;;11.57;4.22;;;717.30;921.60;;;;;;5074089;28;20025;-71
2021/06/09 11:25:43;;;;;;;9.25;4.38;;;717.30;947.20;;;;;;5074310;28;20189;-66
2021/06/09 11:28:13;;;;;;;7.13;4.13;;;717.30;947.20;;;;;;5074238;28;20021;-67
2021/06/09 11:30:54;;;;;;;6.20;4.57;;;717.30;921.60;;;;;;5074173;28;20021;-66
2021/06/09 11:33:42;;;;;;;7.90;3.65;;;717.30;921.60;;;;;;5073834;28;20025;-67
2021/06/09 11:36:20;;;;;;;9.07;4.03;;;717.30;921.60;;;;;;5073594;28;20394;-65
2021/06/09 11:38:47;;;;;;;9.18;3.47;;;717.40;947.20;;;;;;5073692;28;20028;-69
2021/06/09 11:41:16;;;;;;;6.88;3.22;;;717.30;896.00;;;;;;5070988;28;20009;-71
2021/06/09 11:43:43;;;;;;;8.52;3.40;;;717.40;896.00;;;;;;5073504;28;20020;-64
2021/06/09 11:46:21;;;;;;;13.50;3.97;;;717.40;972.80;;;;;;5073374;28;20020;-68
2021/06/09 11:49:07;;;;;;;21.30;4.82;;;717.50;1024.00;;;;;;5073681;28;20055;-68
2021/06/09 11:51:46;;;;;;;12.75;4.82;;;717.50;1024.00;;;;;;5070633;28;20024;-64
2021/06/09 11:54:35;;;;;;;10.57;4.30;;;717.50;1024.00;;;;;;5070749;28;20473;-71
2021/06/09 11:57:10;;;;;;;11.90;4.13;;;717.60;1049.60;;;;;;5071673;28;20473;-65
2021/06/09 11:59:38;;;;;;;11.63;3.92;;;742.40;1024.00;;;;;;5070973;28;20123;-65
2021/06/09 12:02:10;;;;;;;9.95;3.78;;;742.40;1024.00;;;;;;5073250;28;20016;-65
2021/06/09 12:04:40;;;;;;;10.88;4.60;;;742.40;1024.00;;;;;;5071223;28;20382;-64
2021/06/09 12:07:24;;;;;;;18.83;4.30;;;742.40;1049.60;;;;;;5073183;28;20020;-67
2021/06/09 12:09:56;;;;;;;6.72;4.47;;;742.40;1049.60;;;;;;5053601;28;20021;-66
2021/06/09 12:12:35;;;;;;;11.23;4.72;;;742.40;1024.00;;;;;;5053637;28;20018;-66
2021/06/09 12:15:06;;;;;;;7.53;4.18;;;717.60;998.40;;;;;;5053374;28;20041;-64
2021/06/09 12:17:34;;;;;;;11.65;4.00;;;717.50;972.80;;;;;;5053504;28;20040;-68
2021/06/09 12:20:01;;;;;;;8.73;4.35;;;717.50;972.80;;;;;;5055796;28;20088;-65
2021/06/09 12:22:30;;;;;;;25.95;4.60;;;717.50;998.40;;;;;;5073322;28;20024;-66
2021/06/09 12:24:59;;;;;;;16.80;4.75;;;717.60;998.40;;;;;;5073506;28;20016;-67
2021/06/09 12:27:26;;;;;;;11.98;3.83;;;717.60;998.40;;;;;;5073348;28;20032;-67
2021/06/09 12:29:51;;;;;;;9.73;3.55;;;717.50;972.80;;;;;;5073471;28;20048;-68